createdAt,value
2019-04-22T00:00:36.063Z,1002.04
2019-04-22T00:01:31.194Z,1002.07
2019-04-22T00:02:28.572Z,1002.06
2019-04-22T00:03:35.567Z,1002.01
2019-04-22T00:04:40.292Z,1001.96
2019-04-22T00:05:51.139Z,1001.95
2019-04-22T00:06:51.726Z,1001.94
2019-04-22T00:08:00.119Z,1001.93
2019-04-22T00:08:56.045Z,1001.89
2019-04-22T00:09:58.369Z,1001.99
2019-04-22T00:10:54.209Z,1001.96
2019-04-22T00:11:54.879Z,1001.93
2019-04-22T00:12:57.805Z,1001.96
2019-04-22T00:14:47.716Z,1001.93
2019-04-22T00:15:51.647Z,1001.89
2019-04-22T00:16:53.488Z,1001.88
2019-04-22T00:18:00.310Z,1001.86
2019-04-22T00:19:11.457Z,1001.82
2019-04-22T00:20:00.397Z,1001.87
2019-04-22T00:20:51.777Z,1001.84
2019-04-22T00:21:55.221Z,1001.83
2019-04-22T00:22:50.503Z,1001.84
2019-04-22T00:23:53.094Z,1001.77
2019-04-22T00:24:51.252Z,1001.79
2019-04-22T00:25:57.345Z,1001.73
2019-04-22T00:26:57.097Z,1001.79
2019-04-22T00:27:57.506Z,1001.73
2019-04-22T00:29:08.138Z,1001.67
2019-04-22T00:30:13.290Z,1001.71
2019-04-22T00:30:54.733Z,1001.71
2019-04-22T00:31:52.921Z,1001.68
2019-04-22T00:32:50.049Z,1001.72
2019-04-22T00:33:53.169Z,1001.70
2019-04-22T00:34:53.728Z,1001.64
2019-04-22T00:35:51.130Z,1001.66
2019-04-22T00:36:57.385Z,1001.64
2019-04-22T00:37:56.946Z,1001.61
2019-04-22T00:38:51.647Z,1001.65
2019-04-22T00:39:51.789Z,1001.65
2019-04-22T00:40:53.881Z,1001.62
2019-04-22T00:41:56.944Z,1001.68
2019-04-22T00:42:52.978Z,1001.62
2019-04-22T00:43:59.594Z,1001.60
2019-04-22T00:44:51.867Z,1001.61
2019-04-22T00:45:53.729Z,1001.59
2019-04-22T00:46:52.237Z,1001.55
2019-04-22T00:47:54.871Z,1001.55
2019-04-22T00:49:18.718Z,1001.56
2019-04-22T00:51:04.198Z,1001.55
2019-04-22T00:52:01.861Z,1001.54
2019-04-22T00:52:59.827Z,1001.55
2019-04-22T00:53:57.817Z,1001.54
2019-04-22T00:55:04.163Z,1001.56
2019-04-22T00:55:59.198Z,1001.50
2019-04-22T00:56:50.752Z,1001.50
2019-04-22T00:57:54.671Z,1001.50
2019-04-22T00:59:09.813Z,1001.53
2019-04-22T00:59:52.358Z,1001.50
2019-04-22T01:00:55.886Z,1001.52
2019-04-22T01:01:55.803Z,1001.49
2019-04-22T01:02:54.084Z,1001.39
2019-04-22T01:04:00.811Z,1001.46
2019-04-22T01:04:56.008Z,1001.44
2019-04-22T01:05:55.406Z,1001.45
2019-04-22T01:06:51.639Z,1001.44
2019-04-22T01:07:51.402Z,1001.39
2019-04-22T01:08:57.793Z,1001.40
2019-04-22T01:09:58.861Z,1001.35
2019-04-22T01:10:52.964Z,1001.42
2019-04-22T01:11:53.990Z,1001.40
2019-04-22T01:12:53.358Z,1001.37
2019-04-22T01:13:53.338Z,1001.34
2019-04-22T01:14:59.208Z,1001.37
2019-04-22T01:15:57.477Z,1001.30
2019-04-22T01:16:55.145Z,1001.35
2019-04-22T01:17:51.095Z,1001.26
2019-04-22T01:18:55.228Z,1001.35
2019-04-22T01:19:56.223Z,1001.29
2019-04-22T01:21:05.949Z,1001.27
2019-04-22T01:21:52.463Z,1001.24
2019-04-22T01:22:55.935Z,1001.27
2019-04-22T01:23:47.998Z,1001.24
2019-04-22T01:24:50.493Z,1001.20
2019-04-22T01:25:47.560Z,1001.23
2019-04-22T01:26:47.675Z,1001.20
2019-04-22T01:27:46.258Z,1001.18
2019-04-22T01:28:39.529Z,1001.24
2019-04-22T01:29:44.060Z,1001.22
2019-04-22T01:30:38.333Z,1001.18
2019-04-22T01:31:31.462Z,1001.11
2019-04-22T01:32:32.805Z,1001.16
2019-04-22T01:33:35.143Z,1001.11
2019-04-22T01:34:40.372Z,1001.09
2019-04-22T01:35:41.181Z,1001.08
2019-04-22T01:36:48.657Z,1001.07
2019-04-22T01:37:45.488Z,1001.08
2019-04-22T01:38:51.221Z,1001.03
2019-04-22T01:39:54.425Z,1001.05
2019-04-22T01:40:52.583Z,1001.04
2019-04-22T01:42:06.098Z,1000.99
2019-04-22T01:42:56.225Z,1001.07
2019-04-22T01:43:58.786Z,1001.02
2019-04-22T01:44:50.600Z,1000.97
2019-04-22T01:45:57.434Z,1000.94
2019-04-22T01:47:08.061Z,1000.98
2019-04-22T01:47:49.145Z,1000.95
2019-04-22T01:48:57.802Z,1001.00
2019-04-22T01:49:54.144Z,1001.00
2019-04-22T01:50:50.178Z,1000.94
2019-04-22T01:52:11.451Z,1000.94
2019-04-22T01:53:00.922Z,1000.99
2019-04-22T01:54:01.704Z,1001.01
2019-04-22T01:54:58.555Z,1000.97
2019-04-22T01:55:53.362Z,1000.96
2019-04-22T01:56:53.952Z,1000.97
2019-04-22T01:57:47.518Z,1000.95
2019-04-22T01:58:44.168Z,1000.94
2019-04-22T01:59:45.961Z,1000.92
2019-04-22T02:00:58.307Z,1000.89
2019-04-22T02:03:10.303Z,1000.89
2019-04-22T02:03:54.886Z,1000.84
2019-04-22T02:04:53.640Z,1000.93
2019-04-22T02:05:56.547Z,1000.89
2019-04-22T02:07:48.206Z,1000.89
2019-04-22T02:10:12.682Z,1000.89
2019-04-22T02:10:54.615Z,1000.87
2019-04-22T02:11:57.265Z,1000.86
2019-04-22T02:12:54.239Z,1000.78
2019-04-22T02:13:56.590Z,1000.77
2019-04-22T02:14:52.486Z,1000.77
2019-04-22T02:15:52.743Z,1000.78
2019-04-22T02:16:56.174Z,1000.76
2019-04-22T02:17:54.799Z,1000.74
2019-04-22T02:18:52.426Z,1000.74
2019-04-22T02:20:48.914Z,1000.74
2019-04-22T02:21:51.610Z,1000.73
2019-04-22T02:23:23.964Z,1000.69
2019-04-22T02:24:54.282Z,1000.71
2019-04-22T02:25:57.952Z,1000.69
2019-04-22T02:26:48.319Z,1000.69
2019-04-22T02:27:54.754Z,1000.68
2019-04-22T02:28:45.848Z,1000.71
2019-04-22T02:31:59.031Z,1000.72
2019-04-22T02:33:11.056Z,1000.69
2019-04-22T02:36:58.387Z,1000.65
2019-04-22T02:37:54.995Z,1000.62
2019-04-22T02:39:57.268Z,1000.63
2019-04-22T02:42:00.789Z,1000.58
2019-04-22T02:43:01.399Z,1000.55
2019-04-22T02:44:53.679Z,1000.55
2019-04-22T02:46:13.530Z,1000.54
2019-04-22T02:47:14.103Z,1000.47
2019-04-22T02:47:59.210Z,1000.54
2019-04-22T02:50:02.012Z,1000.43
2019-04-22T02:51:06.159Z,1000.45
2019-04-22T02:51:52.420Z,1000.50
2019-04-22T02:52:50.341Z,1000.55
2019-04-22T02:56:21.883Z,1000.44
2019-04-22T02:56:54.346Z,1000.50
2019-04-22T02:58:21.833Z,1000.47
2019-04-22T02:59:02.422Z,1000.46
2019-04-22T03:02:14.392Z,1000.50
2019-04-22T03:03:09.183Z,1000.44
2019-04-22T03:04:11.032Z,1000.44
2019-04-22T03:05:06.308Z,1000.46
2019-04-22T03:06:07.378Z,1000.44
2019-04-22T03:07:05.479Z,1000.40
2019-04-22T03:08:10.838Z,1000.42
2019-04-22T03:09:59.481Z,1000.38
2019-04-22T03:12:11.281Z,1000.35
2019-04-22T03:13:04.747Z,1000.38
2019-04-22T03:15:07.816Z,1000.36
2019-04-22T03:16:23.564Z,1000.35
2019-04-22T03:16:50.439Z,1000.33
2019-04-22T03:18:01.229Z,1000.35
2019-04-22T03:20:02.566Z,1000.33
2019-04-22T03:20:58.324Z,1000.25
2019-04-22T03:22:00.750Z,1000.21
2019-04-22T03:23:05.814Z,1000.29
2019-04-22T03:24:12.140Z,1000.21
2019-04-22T03:25:24.156Z,1000.22
2019-04-22T03:26:11.522Z,1000.23
2019-04-22T03:27:00.907Z,1000.19
2019-04-22T03:28:08.804Z,1000.20
2019-04-22T03:30:30.223Z,1000.14
2019-04-22T03:34:39.548Z,1000.19
2019-04-22T03:37:58.653Z,1000.18
2019-04-22T03:39:15.540Z,1000.18
2019-04-22T03:40:04.375Z,1000.13
2019-04-22T03:45:00.626Z,1000.16
2019-04-22T03:45:46.424Z,1000.14
2019-04-22T03:48:01.506Z,1000.09
2019-04-22T03:49:12.139Z,1000.13
2019-04-22T03:50:04.077Z,1000.09
2019-04-22T03:51:04.500Z,1000.10
2019-04-22T03:52:05.653Z,1000.10
2019-04-22T03:54:11.112Z,1000.10
2019-04-22T03:56:47.331Z,1000.05
2019-04-22T03:57:51.946Z,1000.08
2019-04-22T03:59:07.552Z,1000.05
2019-04-22T04:00:15.720Z,1000.00
2019-04-22T04:01:03.129Z,1000.00
2019-04-22T04:04:11.528Z,1000.02
2019-04-22T04:04:50.497Z,999.93
2019-04-22T04:08:14.598Z,999.95
2019-04-22T04:09:03.865Z,999.89
2019-04-22T04:10:00.699Z,999.91
2019-04-22T04:10:52.739Z,999.91
2019-04-22T04:12:00.089Z,999.88
2019-04-22T04:13:03.310Z,999.90
2019-04-22T04:14:05.168Z,999.91
2019-04-22T04:16:10.694Z,999.93
2019-04-22T04:22:00.703Z,999.86
2019-04-22T04:25:24.927Z,999.81
2019-04-22T04:26:05.057Z,999.84
2019-04-22T04:29:05.082Z,999.78
2019-04-22T04:30:12.754Z,999.76
2019-04-22T04:31:09.446Z,999.80
2019-04-22T04:32:11.805Z,999.78
2019-04-22T04:32:57.095Z,999.81
2019-04-22T04:38:24.019Z,999.75
2019-04-22T04:40:07.990Z,999.77
2019-04-22T04:40:57.982Z,999.76
2019-04-22T04:42:09.460Z,999.80
2019-04-22T04:43:07.763Z,999.75
2019-04-22T04:44:01.600Z,999.77
2019-04-22T04:46:02.884Z,999.82
2019-04-22T04:46:59.167Z,999.79
2019-04-22T04:47:54.866Z,999.83
2019-04-22T04:49:57.473Z,999.80
2019-04-22T04:51:11.061Z,999.79
2019-04-22T04:52:03.960Z,999.79
2019-04-22T04:53:06.375Z,999.77
2019-04-22T04:54:08.679Z,999.81
2019-04-22T04:55:57.814Z,999.80
2019-04-22T04:57:17.409Z,999.85
2019-04-22T04:59:13.325Z,999.78
2019-04-22T05:01:20.438Z,999.79
2019-04-22T05:02:12.294Z,999.75
2019-04-22T05:03:15.566Z,999.77
2019-04-22T05:04:33.870Z,999.77
2019-04-22T05:05:11.758Z,999.75
2019-04-22T05:06:13.074Z,999.76
2019-04-22T05:08:19.788Z,999.78
2019-04-22T05:10:09.840Z,999.78
2019-04-22T05:11:05.671Z,999.77
2019-04-22T05:12:19.507Z,999.83
2019-04-22T05:13:03.214Z,999.75
2019-04-22T05:14:17.248Z,999.71
2019-04-22T05:15:11.318Z,999.68
2019-04-22T05:17:12.945Z,999.77
2019-04-22T05:18:06.206Z,999.69
2019-04-22T05:19:07.611Z,999.79
2019-04-22T05:20:12.946Z,999.77
2019-04-22T05:22:59.486Z,999.62
2019-04-22T05:24:15.197Z,999.80
2019-04-22T05:25:04.764Z,999.72
2019-04-22T05:26:06.892Z,999.74
2019-04-22T05:27:05.773Z,999.71
2019-04-22T05:27:57.603Z,999.73
2019-04-22T05:29:08.046Z,999.70
2019-04-22T05:30:21.037Z,999.71
2019-04-22T05:31:00.511Z,999.74
2019-04-22T05:33:03.953Z,999.72
2019-04-22T05:34:04.541Z,999.67
2019-04-22T05:34:59.771Z,999.65
2019-04-22T05:36:02.698Z,999.66
2019-04-22T05:37:01.289Z,999.74
2019-04-22T05:38:04.826Z,999.63
2019-04-22T05:39:01.841Z,999.69
2019-04-22T05:39:56.532Z,999.63
2019-04-22T05:40:56.160Z,999.66
2019-04-22T05:42:03.661Z,999.63
2019-04-22T05:43:00.179Z,999.59
2019-04-22T05:44:03.558Z,999.61
2019-04-22T05:45:04.580Z,999.63
2019-04-22T05:45:57.889Z,999.58
2019-04-22T05:46:52.778Z,999.63
2019-04-22T05:47:57.738Z,999.64
2019-04-22T05:48:58.775Z,999.60
2019-04-22T05:49:54.621Z,999.58
2019-04-22T05:50:59.305Z,999.58
2019-04-22T05:51:56.704Z,999.62
2019-04-22T05:53:03.193Z,999.50
2019-04-22T05:54:02.588Z,999.52
2019-04-22T05:55:02.984Z,999.49
2019-04-22T05:56:09.987Z,999.56
2019-04-22T05:56:58.673Z,999.55
2019-04-22T05:58:02.723Z,999.53
2019-04-22T06:00:04.621Z,999.54
2019-04-22T06:01:30.714Z,999.57
2019-04-22T06:05:19.703Z,999.53
2019-04-22T06:05:55.124Z,999.53
2019-04-22T06:07:04.837Z,999.56
2019-04-22T06:08:00.167Z,999.51
2019-04-22T06:10:06.694Z,999.53
2019-04-22T06:11:01.473Z,999.55
2019-04-22T06:11:55.587Z,999.53
2019-04-22T06:12:57.288Z,999.63
2019-04-22T06:13:59.176Z,999.70
2019-04-22T06:15:01.478Z,999.70
2019-04-22T06:15:56.889Z,999.76
2019-04-22T06:17:02.013Z,999.77
2019-04-22T06:18:06.496Z,999.70
2019-04-22T06:19:05.302Z,999.78
2019-04-22T06:19:57.647Z,999.80
2019-04-22T06:21:58.017Z,999.86
2019-04-22T06:24:07.195Z,999.84
2019-04-22T06:25:01.107Z,999.88
2019-04-22T06:28:07.142Z,999.94
2019-04-22T06:29:06.992Z,999.95
2019-04-22T06:29:55.328Z,999.95
2019-04-22T06:31:02.557Z,999.92
2019-04-22T06:32:17.531Z,999.97
2019-04-22T06:33:02.781Z,1000.03
2019-04-22T06:34:05.680Z,1000.01
2019-04-22T06:35:11.353Z,1000.05
2019-04-22T06:36:02.066Z,1000.01
2019-04-22T06:38:22.777Z,1000.01
2019-04-22T06:38:59.011Z,1000.02
2019-04-22T06:40:00.868Z,1000.01
2019-04-22T06:41:05.740Z,1000.06
2019-04-22T06:42:01.078Z,1000.02
2019-04-22T06:43:06.209Z,1000.05
2019-04-22T06:44:04.787Z,1000.01
2019-04-22T06:45:04.226Z,999.95
2019-04-22T06:46:02.414Z,1000.04
2019-04-22T06:46:56.394Z,999.97
2019-04-22T06:48:08.024Z,1000.08
2019-04-22T06:49:03.647Z,1000.05
2019-04-22T06:49:59.310Z,1000.09
2019-04-22T06:51:18.415Z,1000.04
2019-04-22T06:52:06.011Z,1000.05
2019-04-22T06:54:01.712Z,1000.11
2019-04-22T06:55:03.916Z,1000.08
2019-04-22T06:56:00.274Z,1000.13
2019-04-22T06:57:02.497Z,1000.10
2019-04-22T06:57:59.872Z,1000.11
2019-04-22T06:58:59.374Z,1000.15
2019-04-22T06:59:58.559Z,1000.14
2019-04-22T07:01:19.355Z,1000.18
2019-04-22T07:02:02.187Z,1000.14
2019-04-22T07:03:18.949Z,1000.23
2019-04-22T07:03:56.945Z,1000.18
2019-04-22T07:04:56.343Z,1000.22
2019-04-22T07:05:57.113Z,1000.21
2019-04-22T07:07:05.373Z,1000.23
2019-04-22T07:08:04.433Z,1000.25
2019-04-22T07:09:20.743Z,1000.23
2019-04-22T07:10:11.379Z,1000.17
2019-04-22T07:10:54.790Z,1000.09
2019-04-22T07:12:03.499Z,1000.16
2019-04-22T07:12:53.895Z,1000.15
2019-04-22T07:15:03.017Z,1000.08
2019-04-22T07:16:00.402Z,1000.12
2019-04-22T07:16:56.040Z,1000.15
2019-04-22T07:18:06.183Z,1000.12
2019-04-22T07:18:56.878Z,1000.16
2019-04-22T07:19:57.850Z,1000.10
2019-04-22T07:22:00.447Z,1000.13
2019-04-22T07:23:06.787Z,1000.16
2019-04-22T07:24:14.504Z,1000.16
2019-04-22T07:24:59.122Z,1000.14
2019-04-22T07:25:58.148Z,1000.15
2019-04-22T07:26:58.838Z,1000.20
2019-04-22T07:28:01.048Z,1000.21
2019-04-22T07:28:56.472Z,1000.23
2019-04-22T07:30:03.893Z,1000.15
2019-04-22T07:31:02.423Z,1000.14
2019-04-22T07:32:01.578Z,1000.17
2019-04-22T07:33:11.444Z,1000.12
2019-04-22T07:34:02.243Z,1000.09
2019-04-22T07:35:01.140Z,1000.14
2019-04-22T07:37:09.515Z,1000.07
2019-04-22T07:38:00.948Z,1000.08
2019-04-22T07:39:01.835Z,1000.03
2019-04-22T07:39:56.250Z,999.98
2019-04-22T07:40:55.553Z,999.95
2019-04-22T07:41:59.130Z,999.97
2019-04-22T07:42:59.275Z,999.92
2019-04-22T07:44:13.012Z,1000.06
2019-04-22T07:45:01.114Z,1000.01
2019-04-22T07:45:53.748Z,1000.03
2019-04-22T07:47:07.486Z,999.91
2019-04-22T07:48:02.689Z,999.94
2019-04-22T07:48:57.765Z,1000.00
2019-04-22T07:50:03.277Z,1000.04
2019-04-22T07:51:55.875Z,999.98
2019-04-22T07:53:02.902Z,999.96
2019-04-22T07:53:59.694Z,1000.00
2019-04-22T07:54:56.971Z,999.98
2019-04-22T07:55:57.478Z,1000.03
2019-04-22T07:57:02.954Z,1000.03
2019-04-22T07:57:58.235Z,999.96
2019-04-22T07:58:56.862Z,999.99
2019-04-22T08:00:06.882Z,1000.05
2019-04-22T08:01:03.777Z,999.92
2019-04-22T08:01:55.992Z,999.88
2019-04-22T08:02:59.730Z,999.93
2019-04-22T08:05:05.101Z,999.93
2019-04-22T08:06:08.688Z,999.90
2019-04-22T08:06:58.774Z,999.95
2019-04-22T08:08:02.580Z,999.99
2019-04-22T08:09:01.727Z,999.96
2019-04-22T08:11:59.429Z,999.83
2019-04-22T08:12:57.988Z,999.85
2019-04-22T08:13:54.644Z,999.89
2019-04-22T08:14:58.389Z,999.87
2019-04-22T08:15:58.507Z,999.86
2019-04-22T08:17:13.572Z,999.86
2019-04-22T08:18:06.830Z,999.87
2019-04-22T08:19:04.316Z,999.93
2019-04-22T08:20:02.717Z,999.90
2019-04-22T08:20:59.028Z,999.95
2019-04-22T08:21:58.120Z,999.92
2019-04-22T08:23:04.830Z,999.97
2019-04-22T08:25:10.399Z,999.97
2019-04-22T08:25:55.483Z,999.90
2019-04-22T08:26:58.153Z,999.91
2019-04-22T08:27:58.405Z,999.94
2019-04-22T08:28:59.358Z,999.97
2019-04-22T08:31:02.030Z,999.88
2019-04-22T08:33:01.025Z,999.91
2019-04-22T08:34:02.105Z,999.86
2019-04-22T08:34:55.632Z,999.87
2019-04-22T08:37:26.224Z,999.90
2019-04-22T08:38:11.645Z,999.89
2019-04-22T08:39:17.194Z,999.79
2019-04-22T08:40:01.602Z,999.79
2019-04-22T08:40:56.484Z,999.75
2019-04-22T08:41:51.237Z,999.82
2019-04-22T08:43:06.811Z,999.76
2019-04-22T08:44:07.943Z,999.78
2019-04-22T08:45:09.667Z,999.81
2019-04-22T08:46:01.683Z,999.77
2019-04-22T08:47:55.074Z,999.79
2019-04-22T08:50:02.457Z,999.76
2019-04-22T08:51:02.732Z,999.73
2019-04-22T08:51:58.920Z,999.72
2019-04-22T08:53:02.093Z,999.72
2019-04-22T08:54:00.101Z,999.69
2019-04-22T08:54:57.380Z,999.66
2019-04-22T08:56:09.120Z,999.59
2019-04-22T08:56:58.367Z,999.67
2019-04-22T08:58:16.799Z,999.67
2019-04-22T08:59:07.097Z,999.58
2019-04-22T08:59:48.766Z,999.59
2019-04-22T09:01:06.494Z,999.60
2019-04-22T09:01:57.477Z,999.60
2019-04-22T09:02:59.438Z,999.59
2019-04-22T09:03:58.441Z,999.56
2019-04-22T09:04:56.552Z,999.57
2019-04-22T09:07:12.884Z,999.53
2019-04-22T09:08:05.885Z,999.52
2019-04-22T09:09:02.071Z,999.52
2019-04-22T09:09:58.273Z,999.44
2019-04-22T09:10:58.602Z,999.52
2019-04-22T09:12:14.708Z,999.51
2019-04-22T09:13:02.416Z,999.40
2019-04-22T09:14:49.396Z,999.47
2019-04-22T09:15:55.552Z,999.54
2019-04-22T09:17:02.260Z,999.48
2019-04-22T09:18:02.433Z,999.42
2019-04-22T09:18:59.264Z,999.44
2019-04-22T09:19:59.984Z,999.43
2019-04-22T09:21:07.088Z,999.41
2019-04-22T09:22:00.589Z,999.42
2019-04-22T09:23:03.930Z,999.34
2019-04-22T09:23:58.692Z,999.36
2019-04-22T09:24:52.728Z,999.34
2019-04-22T09:25:53.226Z,999.37
2019-04-22T09:26:54.524Z,999.41
2019-04-22T09:27:57.475Z,999.45
2019-04-22T09:29:02.843Z,999.44
2019-04-22T09:29:58.508Z,999.39
2019-04-22T09:31:01.928Z,999.41
2019-04-22T09:33:06.386Z,999.42
2019-04-22T09:33:53.278Z,999.32
2019-04-22T09:34:56.589Z,999.33
2019-04-22T09:36:07.835Z,999.34
2019-04-22T09:37:08.108Z,999.34
2019-04-22T09:38:11.402Z,999.27
2019-04-22T09:38:52.927Z,999.29
2019-04-22T09:40:09.183Z,999.25
2019-04-22T09:41:00.497Z,999.17
2019-04-22T09:41:59.221Z,999.21
2019-04-22T09:43:01.074Z,999.22
2019-04-22T09:43:56.667Z,999.14
2019-04-22T09:44:55.478Z,999.22
2019-04-22T09:48:05.911Z,999.14
2019-04-22T09:49:00.303Z,999.12
2019-04-22T09:50:51.945Z,999.04
2019-04-22T09:51:58.207Z,999.07
2019-04-22T09:53:03.516Z,999.07
2019-04-22T09:54:00.776Z,999.05
2019-04-22T09:55:00.251Z,999.12
2019-04-22T09:55:57.243Z,999.00
2019-04-22T09:56:55.057Z,998.91
2019-04-22T09:57:58.838Z,998.89
2019-04-22T09:58:59.003Z,998.83
2019-04-22T10:01:03.082Z,998.87
2019-04-22T10:02:13.224Z,998.79
2019-04-22T10:03:02.989Z,998.83
2019-04-22T10:05:05.627Z,998.77
2019-04-22T10:05:58.238Z,998.79
2019-04-22T10:06:54.730Z,998.77
2019-04-22T10:07:59.391Z,998.77
2019-04-22T10:09:12.714Z,998.63
2019-04-22T10:10:03.683Z,998.68
2019-04-22T10:10:57.718Z,998.69
2019-04-22T10:11:55.144Z,998.65
2019-04-22T10:12:54.057Z,998.65
2019-04-22T10:14:55.754Z,998.55
2019-04-22T10:15:50.424Z,998.56
2019-04-22T10:16:53.822Z,998.57
2019-04-22T10:17:58.202Z,998.55
2019-04-22T10:19:00.844Z,998.63
2019-04-22T10:19:57.927Z,998.45
2019-04-22T10:21:00.647Z,998.46
2019-04-22T10:22:57.741Z,998.47
2019-04-22T10:23:57.956Z,998.53
2019-04-22T10:25:01.669Z,998.47
2019-04-22T10:25:57.438Z,998.44
2019-04-22T10:26:57.058Z,998.47
2019-04-22T10:28:01.802Z,998.47
2019-04-22T10:29:01.118Z,998.49
2019-04-22T10:30:52.210Z,998.38
2019-04-22T10:31:55.854Z,998.31
2019-04-22T10:32:56.351Z,998.34
2019-04-22T10:33:49.740Z,998.38
2019-04-22T10:34:38.802Z,998.31
2019-04-22T10:35:32.593Z,998.30
2019-04-22T10:36:31.050Z,998.34
2019-04-22T10:37:30.115Z,998.29
2019-04-22T10:38:30.585Z,998.25
2019-04-22T10:39:39.670Z,998.31
2019-04-22T10:40:32.390Z,998.12
2019-04-22T10:41:30.684Z,998.14
2019-04-22T10:42:29.731Z,998.15
2019-04-22T10:43:29.743Z,998.23
2019-04-22T10:44:30.927Z,998.21
2019-04-22T10:45:30.337Z,998.18
2019-04-22T10:46:30.544Z,998.08
2019-04-22T10:47:29.891Z,998.06
2019-04-22T10:48:30.267Z,998.05
2019-04-22T10:49:30.574Z,998.06
2019-04-22T10:50:31.455Z,997.99
2019-04-22T10:51:30.756Z,998.03
2019-04-22T10:52:29.724Z,997.91
2019-04-22T10:53:29.621Z,997.88
2019-04-22T10:54:29.629Z,997.86
2019-04-22T10:55:29.601Z,997.93
2019-04-22T10:56:30.664Z,997.90
2019-04-22T10:57:29.813Z,997.89
2019-04-22T10:58:36.601Z,997.80
2019-04-22T10:59:29.579Z,997.90
2019-04-22T11:00:29.550Z,997.76
2019-04-22T11:01:29.674Z,997.91
2019-04-22T11:02:29.875Z,997.84
2019-04-22T11:03:30.969Z,997.82
2019-04-22T11:04:30.180Z,997.81
2019-04-22T11:05:30.258Z,997.78
2019-04-22T11:06:29.592Z,997.78
2019-04-22T11:07:36.304Z,997.79
2019-04-22T11:08:38.584Z,997.75
2019-04-22T11:09:30.948Z,997.79
2019-04-22T11:10:44.521Z,997.76
2019-04-22T11:11:43.957Z,997.77
2019-04-22T11:12:34.099Z,997.72
2019-04-22T11:13:31.777Z,997.65
2019-04-22T11:14:30.744Z,997.73
2019-04-22T11:15:30.627Z,997.78
2019-04-22T11:16:29.847Z,997.64
2019-04-22T11:17:29.390Z,997.53
2019-04-22T11:18:29.564Z,997.51
2019-04-22T11:19:29.862Z,997.52
2019-04-22T11:20:29.352Z,997.57
2019-04-22T11:21:29.646Z,997.64
2019-04-22T11:22:33.286Z,997.49
2019-04-22T11:23:30.308Z,997.54
2019-04-22T11:24:30.614Z,997.55
2019-04-22T11:25:29.924Z,997.52
2019-04-22T11:26:29.962Z,997.46
2019-04-22T11:27:30.802Z,997.39
2019-04-22T11:28:29.663Z,997.39
2019-04-22T11:29:29.890Z,997.40
2019-04-22T11:30:30.302Z,997.43
2019-04-22T11:31:30.552Z,997.39
2019-04-22T11:32:30.614Z,997.32
2019-04-22T11:33:30.337Z,997.34
2019-04-22T11:34:29.214Z,997.29
2019-04-22T11:35:29.836Z,997.24
2019-04-22T11:36:30.772Z,997.27
2019-04-22T11:37:30.369Z,997.24
2019-04-22T11:38:29.152Z,997.28
2019-04-22T11:39:31.199Z,997.22
2019-04-22T11:40:37.814Z,997.16
2019-04-22T11:41:31.221Z,997.22
2019-04-22T11:42:30.095Z,997.20
2019-04-22T11:43:30.287Z,997.23
2019-04-22T11:44:30.623Z,997.21
2019-04-22T11:45:29.239Z,997.27
2019-04-22T11:46:29.547Z,997.11
2019-04-22T11:47:29.683Z,997.15
2019-04-22T11:48:29.239Z,997.14
2019-04-22T11:49:30.024Z,997.04
2019-04-22T11:50:30.187Z,996.98
2019-04-22T11:51:29.808Z,997.07
2019-04-22T11:52:29.006Z,996.96
2019-04-22T11:53:29.075Z,996.99
2019-04-22T11:54:28.987Z,996.99
2019-04-22T11:55:28.990Z,996.90
2019-04-22T11:56:29.378Z,996.83
2019-04-22T11:57:28.964Z,996.84
2019-04-22T11:58:28.991Z,996.84
2019-04-22T11:59:29.084Z,996.74
2019-04-22T12:00:29.389Z,996.81
2019-04-22T12:01:28.919Z,996.82
2019-04-22T12:02:29.258Z,996.76
2019-04-22T12:03:28.886Z,996.76
2019-04-22T12:04:29.995Z,996.74
2019-04-22T12:05:30.011Z,996.70
2019-04-22T12:06:28.855Z,996.77
2019-04-22T12:07:31.716Z,996.76
2019-04-22T12:08:29.185Z,996.67
2019-04-22T12:09:29.937Z,996.84
2019-04-22T12:10:36.962Z,996.74
2019-04-22T12:11:30.261Z,996.75
2019-04-22T12:12:29.945Z,996.71
2019-04-22T12:13:30.161Z,996.68
2019-04-22T12:14:30.002Z,996.76
2019-04-22T12:15:28.959Z,996.63
2019-04-22T12:16:29.658Z,996.69
2019-04-22T12:17:29.848Z,996.63
2019-04-22T12:18:29.130Z,996.72
2019-04-22T12:19:29.439Z,996.62
2019-04-22T12:20:29.411Z,996.63
2019-04-22T12:21:28.992Z,996.64
2019-04-22T12:22:29.276Z,996.63
2019-04-22T12:23:29.394Z,996.63
2019-04-22T12:24:30.137Z,996.61
2019-04-22T12:25:39.669Z,996.47
2019-04-22T12:26:30.657Z,996.53
2019-04-22T12:27:29.970Z,996.47
2019-04-22T12:28:28.868Z,996.51
2019-04-22T12:29:29.024Z,996.45
2019-04-22T12:30:29.777Z,996.47
2019-04-22T12:31:29.310Z,996.45
2019-04-22T12:32:29.696Z,996.42
2019-04-22T12:33:29.512Z,996.44
2019-04-22T12:34:29.240Z,996.38
2019-04-22T12:35:28.548Z,996.29
2019-04-22T12:36:28.803Z,996.41
2019-04-22T12:37:34.376Z,996.34
2019-04-22T12:38:29.553Z,996.26
2019-04-22T12:39:29.550Z,996.21
2019-04-22T12:40:38.272Z,996.29
2019-04-22T12:41:29.508Z,996.21
2019-04-22T12:42:29.296Z,996.16
2019-04-22T12:43:29.831Z,996.25
2019-04-22T12:44:28.571Z,996.14
2019-04-22T12:45:29.825Z,996.14
2019-04-22T12:46:28.450Z,996.13
2019-04-22T12:47:28.424Z,996.11
2019-04-22T12:48:28.413Z,996.06
2019-04-22T12:49:29.891Z,996.13
2019-04-22T12:50:33.863Z,996.07
2019-04-22T12:51:29.397Z,996.16
2019-04-22T12:52:36.947Z,996.12
2019-04-22T12:53:29.920Z,996.03
2019-04-22T12:54:29.087Z,996.01
2019-04-22T12:55:28.338Z,996.00
2019-04-22T12:56:29.807Z,996.04
2019-04-22T12:57:28.456Z,995.95
2019-04-22T12:58:29.601Z,995.90
2019-04-22T12:59:29.787Z,995.94
2019-04-22T13:00:28.283Z,995.87
2019-04-22T13:01:28.992Z,995.87
2019-04-22T13:02:29.306Z,995.85
2019-04-22T13:03:28.621Z,995.76
2019-04-22T13:04:28.244Z,995.84
2019-04-22T13:05:29.234Z,995.77
2019-04-22T13:06:28.240Z,995.81
2019-04-22T13:07:29.438Z,995.74
2019-04-22T13:08:29.628Z,995.74
2019-04-22T13:09:29.421Z,995.77
2019-04-22T13:10:40.235Z,995.79
2019-04-22T13:11:34.067Z,995.66
2019-04-22T13:12:29.152Z,995.68
2019-04-22T13:13:29.042Z,995.66
2019-04-22T13:14:28.134Z,995.62
2019-04-22T13:15:28.882Z,995.73
2019-04-22T13:16:29.302Z,995.61
2019-04-22T13:17:29.153Z,995.68
2019-04-22T13:18:37.460Z,995.57
2019-04-22T13:19:30.242Z,995.64
2019-04-22T13:20:28.295Z,995.50
2019-04-22T13:21:28.910Z,995.59
2019-04-22T13:22:28.046Z,995.59
2019-04-22T13:23:29.649Z,995.55
2019-04-22T13:24:28.124Z,995.54
2019-04-22T13:25:29.971Z,995.47
2019-04-22T13:26:29.646Z,995.43
2019-04-22T13:27:29.045Z,995.45
2019-04-22T13:28:29.244Z,995.46
2019-04-22T13:29:27.977Z,995.46
2019-04-22T13:30:28.453Z,995.45
2019-04-22T13:31:28.850Z,995.28
2019-04-22T13:32:28.918Z,995.36
2019-04-22T13:33:28.693Z,995.32
2019-04-22T13:34:37.399Z,995.25
2019-04-22T13:35:29.813Z,995.28
2019-04-22T13:36:29.749Z,995.31
2019-04-22T13:37:28.600Z,995.37
2019-04-22T13:38:29.054Z,995.34
2019-04-22T13:39:29.186Z,995.36
2019-04-22T13:40:28.865Z,995.37
2019-04-22T13:41:35.799Z,995.35
2019-04-22T13:42:30.130Z,995.43
2019-04-22T13:43:29.121Z,995.30
2019-04-22T13:44:28.114Z,995.30
2019-04-22T13:45:27.925Z,995.39
2019-04-22T13:46:31.299Z,995.36
2019-04-22T13:47:41.984Z,995.31
2019-04-22T13:48:49.893Z,995.30
2019-04-22T13:50:08.275Z,995.30
2019-04-22T13:50:56.433Z,995.33
2019-04-22T13:53:10.024Z,995.25
2019-04-22T13:54:57.916Z,995.22
2019-04-22T13:55:57.943Z,995.19
2019-04-22T13:56:49.209Z,995.17
2019-04-22T13:57:46.327Z,995.24
2019-04-22T13:58:42.745Z,995.21
2019-04-22T13:59:38.116Z,995.20
2019-04-22T14:00:28.692Z,995.22
2019-04-22T14:01:28.335Z,995.17
2019-04-22T14:02:28.634Z,995.16
2019-04-22T14:03:29.024Z,995.09
2019-04-22T14:04:28.544Z,995.05
2019-04-22T14:05:28.891Z,995.02
2019-04-22T14:06:28.945Z,995.09